Time;durP1;ratioP1;P1;durP2;ratioP2;P2;SDS_P1;SDS_P2;PMS_P1;PMS_P2;Temp;Humidity;BMP_temperature;BMP_pressure;BME280_temperature;BME280_humidity;BME280_pressure;Samples;Min_cycle;Max_cycle;Signal;HPM_P1;HPM_P2
2021/04/03 00:01:38;;;;;;;6.27;4.63;;;8.60;99.90;;;;;;4954253;28;20529;-69
2021/04/03 00:04:05;;;;;;;8.23;4.73;;;8.60;99.90;;;;;;4954638;28;20876;-66
2021/04/03 00:06:31;;;;;;;8.40;4.80;;;8.40;99.90;;;;;;4954602;28;20918;-67
2021/04/03 00:08:58;;;;;;;14.57;4.70;;;8.50;99.90;;;;;;4953579;28;20594;-66
2021/04/03 00:11:25;;;;;;;8.60;4.17;;;8.40;99.90;;;;;;4954568;28;20999;-67
2021/04/03 00:13:51;;;;;;;7.70;4.70;;;8.50;99.90;;;;;;4953970;28;20567;-66
2021/04/03 00:16:18;;;;;;;7.67;4.63;;;8.60;99.90;;;;;;4954368;28;20493;-67
2021/04/03 00:18:44;;;;;;;6.10;4.00;;;8.50;99.90;;;;;;4953197;28;20530;-67
2021/04/03 00:21:11;;;;;;;9.53;4.67;;;8.40;99.90;;;;;;4959330;28;20575;-66
2021/04/03 00:23:37;;;;;;;5.33;4.30;;;8.50;99.90;;;;;;4966661;28;21264;-69
2021/04/03 00:26:04;;;;;;;5.90;4.20;;;8.70;99.90;;;;;;4954222;28;20521;-67
2021/04/03 00:28:31;;;;;;;10.17;4.33;;;8.50;99.90;;;;;;4954052;28;20502;-67
2021/04/03 00:30:58;;;;;;;7.87;4.80;;;8.70;99.90;;;;;;4953590;28;20526;-67
2021/04/03 00:33:25;;;;;;;7.33;5.00;;;8.80;99.90;;;;;;4954209;28;20491;-67
2021/04/03 00:35:51;;;;;;;9.00;4.90;;;8.70;99.90;;;;;;4953575;28;20482;-67
2021/04/03 00:38:17;;;;;;;6.20;5.47;;;8.40;99.90;;;;;;4953950;28;20456;-67
2021/04/03 00:40:46;;;;;;;10.20;5.27;;;8.30;99.90;;;;;;4953413;28;21278;-67
2021/04/03 00:43:14;;;;;;;6.20;4.67;;;8.30;99.90;;;;;;4954236;28;20510;-66
2021/04/03 00:45:42;;;;;;;8.57;4.80;;;8.20;99.90;;;;;;4953356;28;20890;-67
2021/04/03 00:48:09;;;;;;;5.73;4.50;;;8.20;99.90;;;;;;4954030;28;20536;-67
2021/04/03 00:50:36;;;;;;;6.63;4.30;;;;;;;;;;4953419;28;20542;-69
2021/04/03 00:53:04;;;;;;;10.47;5.40;;;;;;;;;;4953473;28;20458;-66
2021/04/03 00:55:31;;;;;;;7.90;4.50;;;;;;;;;;4968476;28;20592;-67
2021/04/03 00:57:58;;;;;;;10.90;4.87;;;;;;;;;;4972580;28;20673;-67
2021/04/03 01:00:24;;;;;;;6.23;4.13;;;;;;;;;;4972824;28;20869;-67
2021/04/03 01:02:52;;;;;;;8.27;4.17;;;;;;;;;;4972292;28;20536;-67
2021/04/03 01:05:20;;;;;;;7.50;4.47;;;;;;;;;;4972594;28;20553;-67
2021/04/03 01:07:47;;;;;;;5.23;4.27;;;;;;;;;;4972391;28;20866;-66
2021/04/03 01:10:14;;;;;;;8.70;5.40;;;;;;;;;;4972508;28;20488;-66
2021/04/03 01:12:46;;;;;;;6.27;4.23;;;;;;;;;;4971748;28;20512;-66
2021/04/03 01:15:17;;;;;;;5.47;3.97;;;;;;;;;;4972524;28;20628;-66
2021/04/03 01:17:50;;;;;;;5.70;4.53;;;;;;;;;;4971836;28;20486;-66
2021/04/03 01:20:29;;;;;;;8.97;5.40;;;;;;;;;;4972137;28;20458;-66
2021/04/03 01:23:17;;;;;;;6.60;4.03;;;;;;;;;;4970931;28;20533;-66
2021/04/03 01:25:49;;;;;;;7.27;4.30;;;;;;;;;;4952639;28;20478;-67
2021/04/03 01:28:35;;;;;;;5.13;4.37;;;;;;;;;;4966104;28;20531;-66
2021/04/03 01:31:02;;;;;;;8.37;4.20;;;;;;;;;;4952424;28;20485;-66
2021/04/03 01:33:31;;;;;;;9.10;4.43;;;;;;;;;;4953296;28;20483;-67
2021/04/03 01:35:59;;;;;;;6.47;4.97;;;;;;;;;;4952329;28;20783;-67
2021/04/03 01:38:31;;;;;;;6.00;4.20;;;;;;;;;;4952374;28;20972;-67
2021/04/03 01:40:59;;;;;;;9.30;4.27;;;;;;;;;;4952322;28;20439;-66
2021/04/03 01:43:28;;;;;;;8.57;4.33;;;;;;;;;;4952963;28;20451;-67
2021/04/03 01:45:56;;;;;;;8.47;4.93;;;;;;;;;;4952290;28;20546;-67
2021/04/03 01:48:24;;;;;;;8.20;5.07;;;;;;;;;;4951904;28;20534;-67
2021/04/03 01:50:51;;;;;;;6.77;4.30;;;;;;;;;;4952040;28;20473;-67
2021/04/03 01:53:18;;;;;;;8.30;6.87;;;;;;;;;;4952717;28;20602;-66
2021/04/03 01:55:45;;;;;;;6.30;4.30;;;;;;;;;;4952154;28;20577;-66
2021/04/03 01:58:12;;;;;;;10.80;3.90;;;;;;;;;;4952129;28;20494;-66
2021/04/03 02:00:39;;;;;;;5.60;4.37;;;;;;;;;;4952197;28;20562;-69
2021/04/03 02:03:07;;;;;;;7.70;4.83;;;;;;;;;;4952447;28;20969;-67
2021/04/03 02:05:36;;;;;;;5.00;3.73;;;;;;;;;;4952236;28;21006;-66
2021/04/03 02:08:03;;;;;;;5.90;4.00;;;;;;;;;;4952069;28;20450;-67
2021/04/03 02:10:31;;;;;;;6.00;4.10;;;;;;;;;;4952263;28;20881;-66
2021/04/03 02:12:57;;;;;;;6.63;4.07;;;;;;;;;;4952040;28;20531;-67
2021/04/03 02:15:25;;;;;;;6.17;5.00;;;;;;;;;;4952767;28;20530;-67
2021/04/03 02:17:55;;;;;;;5.13;4.60;;;;;;;;;;4951715;28;20538;-67
2021/04/03 02:20:22;;;;;;;8.10;5.63;;;;;;;;;;4956981;28;20509;-66
2021/04/03 02:22:49;;;;;;;10.47;4.60;;;;;;;;;;4970749;28;20529;-69
2021/04/03 02:25:17;;;;;;;9.90;5.07;;;;;;;;;;4952343;28;20954;-67
2021/04/03 02:27:44;;;;;;;6.00;4.20;;;;;;;;;;4951953;28;20529;-67
2021/04/03 02:30:12;;;;;;;4.73;4.13;;;;;;;;;;4952305;28;20474;-66
2021/04/03 02:32:43;;;;;;;9.77;5.00;;;;;;;;;;4952071;28;20461;-68
2021/04/03 02:35:10;;;;;;;8.50;4.70;;;;;;;;;;4952616;28;20901;-66
2021/04/03 02:37:37;;;;;;;6.03;4.27;;;;;;;;;;4952363;28;20533;-69
2021/04/03 02:40:07;;;;;;;6.33;4.50;;;;;;;;;;4951533;28;20493;-66
2021/04/03 02:42:34;;;;;;;6.40;3.97;;;;;;;;;;4952385;28;20478;-66
2021/04/03 02:45:03;;;;;;;6.87;4.40;;;;;;;;;;4951802;28;20578;-67
2021/04/03 02:47:34;;;;;;;7.30;4.67;;;;;;;;;;4952080;28;20990;-66
2021/04/03 02:50:03;;;;;;;7.57;4.40;;;;;;;;;;4951016;28;20558;-67
2021/04/03 02:52:30;;;;;;;5.87;4.10;;;;;;;;;;4952160;28;20549;-67
2021/04/03 02:54:57;;;;;;;10.90;4.13;;;;;;;;;;4961391;28;20648;-66
2021/04/03 02:57:25;;;;;;;5.43;3.57;;;;;;;;;;4954615;28;21021;-66
2021/04/03 02:59:54;;;;;;;9.50;4.10;;;;;;;;;;4951380;28;20538;-67
2021/04/03 03:02:23;;;;;;;4.70;3.60;;;;;;;;;;4956176;28;20877;-66
2021/04/03 03:04:50;;;;;;;5.30;3.73;;;;;;;;;;4955653;28;20451;-67
2021/04/03 03:07:17;;;;;;;4.73;3.30;;;;;;;;;;4956006;28;20486;-66
2021/04/03 03:09:45;;;;;;;4.20;3.40;;;;;;;;;;4954763;28;20451;-67
2021/04/03 03:12:13;;;;;;;5.57;3.80;;;;;;;;;;4955758;28;20446;-66
2021/04/03 03:14:42;;;;;;;3.93;3.53;;;;;;;;;;4955321;28;20474;-69
2021/04/03 03:17:10;;;;;;;10.20;4.90;;;;;;;;;;4955403;28;21143;-66
2021/04/03 03:19:37;;;;;;;17.70;4.27;;;;;;;;;;4955022;28;20501;-66
2021/04/03 03:22:04;;;;;;;7.13;3.60;;;;;;;;;;4966957;28;20484;-66
2021/04/03 03:24:32;;;;;;;5.83;4.17;;;;;;;;;;4961552;28;20482;-67
2021/04/03 03:26:59;;;;;;;6.00;3.47;;;;;;;;;;4954628;28;20457;-66
2021/04/03 03:29:27;;;;;;;8.03;3.13;;;;;;;;;;4955148;28;20454;-67
2021/04/03 03:31:55;;;;;;;6.03;4.27;;;;;;;;;;4954744;28;20540;-66
2021/04/03 03:34:22;;;;;;;7.10;3.70;;;;;;;;;;4955720;28;20545;-66
2021/04/03 03:36:48;;;;;;;5.57;3.87;;;;;;;;;;4954503;28;20495;-67
2021/04/03 03:39:15;;;;;;;4.30;2.73;;;;;;;;;;4955084;28;20487;-66
2021/04/03 03:41:43;;;;;;;3.70;3.20;;;;;;;;;;4954466;28;20479;-69
2021/04/03 03:44:10;;;;;;;5.90;3.63;;;;;;;;;;4955384;28;20454;-66
2021/04/03 03:46:37;;;;;;;6.50;3.50;;;;;;;;;;4955002;28;20451;-66
2021/04/03 03:49:05;;;;;;;3.90;3.37;;;;;;;;;;4954477;28;20487;-66
2021/04/03 03:51:32;;;;;;;4.50;3.23;;;;;;;;;;4955248;28;20478;-65
2021/04/03 03:53:59;;;;;;;6.37;3.87;;;;;;;;;;4954013;28;20526;-67
2021/04/03 03:56:26;;;;;;;7.40;3.73;;;;;;;;;;4954879;28;20451;-66
2021/04/03 03:58:52;;;;;;;5.00;3.30;;;8.30;99.90;;;;;;4953675;28;21035;-66
2021/04/03 04:01:19;;;;;;;5.83;3.60;;;7.10;99.90;;;;;;4954688;28;21033;-67
2021/04/03 04:03:46;;;;;;;5.80;3.43;;;7.00;99.90;;;;;;4953881;28;20451;-67
2021/04/03 04:06:13;;;;;;;6.60;4.20;;;6.80;99.90;;;;;;4954874;28;20550;-67
2021/04/03 04:08:41;;;;;;;4.30;3.50;;;7.00;99.90;;;;;;4954128;28;20605;-69
2021/04/03 04:11:07;;;;;;;7.67;4.10;;;7.10;99.90;;;;;;4953994;28;20530;-67
2021/04/03 04:13:36;;;;;;;10.13;4.90;;;6.70;99.90;;;;;;4954643;28;20541;-67
2021/04/03 04:16:03;;;;;;;4.70;3.33;;;7.00;99.90;;;;;;4954014;28;20528;-67
2021/04/03 04:18:30;;;;;;;7.70;3.53;;;6.90;99.90;;;;;;4954171;28;20538;-67
2021/04/03 04:20:56;;;;;;;6.60;3.80;;;6.60;99.90;;;;;;4956195;28;20520;-67
2021/04/03 04:23:23;;;;;;;8.40;4.23;;;6.50;99.90;;;;;;4969426;28;20455;-67
2021/04/03 04:25:50;;;;;;;5.77;3.80;;;6.80;99.90;;;;;;4953920;28;20573;-67
2021/04/03 04:28:16;;;;;;;7.30;4.60;;;6.60;99.90;;;;;;4953772;28;20461;-67
2021/04/03 04:30:43;;;;;;;6.40;3.40;;;6.50;99.90;;;;;;4953541;28;20454;-69
2021/04/03 04:33:09;;;;;;;4.77;3.70;;;6.60;99.90;;;;;;4954029;28;20545;-67
2021/04/03 04:35:36;;;;;;;6.97;4.00;;;6.80;99.90;;;;;;4953889;28;20573;-67
2021/04/03 04:38:02;;;;;;;5.87;3.23;;;6.60;99.90;;;;;;4953161;28;20541;-67
2021/04/03 04:40:30;;;;;;;6.30;4.37;;;6.70;99.90;;;;;;4953933;28;20533;-67
2021/04/03 04:42:58;;;;;;;6.10;3.30;;;6.60;99.90;;;;;;4953336;28;20557;-67
2021/04/03 04:45:24;;;;;;;4.30;3.40;;;6.60;99.90;;;;;;4954270;28;20837;-67
2021/04/03 04:47:51;;;;;;;6.90;3.83;;;6.50;1.00;;;;;;4952944;28;20552;-69
2021/04/03 04:50:17;;;;;;;8.10;3.97;;;6.60;1.00;;;;;;4953916;28;20490;-66
2021/04/03 04:52:44;;;;;;;5.33;3.73;;;6.60;99.90;;;;;;4952883;28;20505;-68
2021/04/03 04:55:11;;;;;;;6.37;3.60;;;6.40;1.00;;;;;;4953854;28;20594;-67
2021/04/03 04:57:39;;;;;;;6.23;3.10;;;6.50;1.00;;;;;;4953799;28;20881;-67
2021/04/03 05:00:06;;;;;;;8.27;3.90;;;6.20;1.00;;;;;;4952913;28;20479;-67
2021/04/03 05:02:32;;;;;;;7.10;4.07;;;6.30;1.00;;;;;;4953579;28;20489;-67
2021/04/03 05:04:59;;;;;;;7.37;4.00;;;6.50;1.00;;;;;;4953027;28;20861;-67
2021/04/03 05:07:25;;;;;;;9.30;3.47;;;6.40;1.00;;;;;;4953374;28;20450;-68
2021/04/03 05:09:52;;;;;;;4.00;3.60;;;6.60;1.00;;;;;;4952644;28;20531;-67
2021/04/03 05:12:18;;;;;;;3.77;3.37;;;6.40;1.00;;;;;;4953635;28;20454;-67
2021/04/03 05:14:45;;;;;;;7.70;4.17;;;6.60;1.00;;;;;;4952834;28;20912;-68
2021/04/03 05:17:12;;;;;;;6.50;3.60;;;6.40;1.00;;;;;;4953433;28;20447;-67
2021/04/03 05:19:38;;;;;;;4.30;3.63;;;6.60;1.00;;;;;;4952849;28;20485;-67
2021/04/03 05:22:05;;;;;;;3.63;3.10;;;7.00;99.90;;;;;;4964717;28;20511;-67
2021/04/03 05:24:31;;;;;;;3.60;3.13;;;6.60;99.90;;;;;;4958565;28;20461;-67
2021/04/03 05:26:58;;;;;;;4.30;3.53;;;6.70;99.90;;;;;;4952643;28;20873;-67
2021/04/03 05:29:24;;;;;;;7.40;4.40;;;6.80;99.90;;;;;;4953128;28;20541;-67
2021/04/03 05:31:51;;;;;;;5.47;3.53;;;6.90;99.90;;;;;;4952423;28;20451;-67
2021/04/03 05:34:18;;;;;;;6.07;3.23;;;6.80;99.90;;;;;;4953164;28;20581;-67
2021/04/03 05:36:44;;;;;;;6.63;3.50;;;7.10;99.90;;;;;;4952297;28;20554;-69
2021/04/03 05:39:10;;;;;;;6.50;3.90;;;7.30;99.90;;;;;;4952847;28;20545;-67
2021/04/03 05:41:37;;;;;;;6.00;3.53;;;7.20;99.90;;;;;;4953311;28;20530;-67
2021/04/03 05:44:04;;;;;;;5.77;3.20;;;7.20;99.90;;;;;;4952105;28;20454;-67
2021/04/03 05:46:31;;;;;;;13.93;4.10;;;7.30;99.90;;;;;;4953078;28;20470;-67
2021/04/03 05:48:59;;;;;;;11.00;5.17;;;7.40;99.90;;;;;;4953204;28;20474;-67
2021/04/03 05:51:27;;;;;;;5.03;3.50;;;7.50;99.90;;;;;;4971906;28;20486;-67
2021/04/03 05:53:53;;;;;;;5.80;3.20;;;7.40;99.90;;;;;;4971521;28;20534;-67
2021/04/03 05:56:20;;;;;;;7.57;3.13;;;7.00;99.90;;;;;;4972341;28;20525;-67
2021/04/03 05:58:46;;;;;;;6.30;3.23;;;7.30;99.90;;;;;;4971043;28;20529;-67
2021/04/03 06:01:13;;;;;;;11.30;3.40;;;7.20;99.90;;;;;;4972159;28;20454;-66
2021/04/03 06:03:40;;;;;;;7.60;3.20;;;7.40;99.90;;;;;;4971713;28;20891;-67
2021/04/03 06:06:07;;;;;;;4.43;2.60;;;7.70;99.90;;;;;;4971901;28;20454;-67
2021/04/03 06:08:34;;;;;;;5.30;3.30;;;7.70;99.90;;;;;;4971981;28;20457;-67
2021/04/03 06:11:17;;;;;;;9.57;3.00;;;8.50;99.90;;;;;;4971279;28;20963;-67
2021/04/03 06:14:02;;;;;;;5.23;2.80;;;8.00;99.90;;;;;;4971312;28;20446;-69
2021/04/03 06:16:30;;;;;;;5.43;2.67;;;8.00;99.90;;;;;;4972083;28;20473;-66
2021/04/03 06:19:17;;;;;;;11.27;3.53;;;8.30;99.90;;;;;;4971081;28;20477;-67
2021/04/03 06:21:46;;;;;;;4.33;3.07;;;8.00;99.90;;;;;;4971295;28;20482;-69
2021/04/03 06:24:22;;;;;;;7.83;3.80;;;7.60;99.90;;;;;;4960884;28;21007;-66
2021/04/03 06:27:03;;;;;;;7.63;3.10;;;7.50;99.90;;;;;;4951836;28;20864;-67
2021/04/03 06:29:37;;;;;;;5.17;2.80;;;7.00;99.90;;;;;;4952234;28;20455;-67
2021/04/03 06:32:05;;;;;;;3.93;2.27;;;6.90;99.90;;;;;;4951675;28;20438;-67
2021/04/03 06:34:36;;;;;;;5.90;3.20;;;7.30;99.90;;;;;;4953203;28;20493;-67
2021/04/03 06:37:06;;;;;;;6.63;3.60;;;7.40;99.90;;;;;;4955836;28;20474;-66
2021/04/03 06:39:52;;;;;;;8.03;3.30;;;7.50;99.90;;;;;;4955865;28;20533;-66
2021/04/03 06:42:46;;;;;;;6.60;2.97;;;7.60;99.90;;;;;;4968594;28;20473;-66
2021/04/03 06:45:37;;;;;;;7.93;3.70;;;7.70;99.90;;;;;;4975562;28;20497;-66
2021/04/03 06:48:05;;;;;;;3.57;2.90;;;7.70;99.90;;;;;;4967919;28;20931;-66
2021/04/03 06:50:33;;;;;;;9.60;2.97;;;7.70;99.90;;;;;;4955939;28;20941;-66
2021/04/03 06:53:05;;;;;;;4.60;4.20;;;7.60;99.90;;;;;;4955304;28;20525;-66
2021/04/03 06:55:31;;;;;;;5.17;3.10;;;7.50;99.90;;;;;;4956142;28;20515;-66
2021/04/03 06:58:00;;;;;;;4.87;3.43;;;7.60;99.90;;;;;;4954849;28;20474;-66
2021/04/03 07:00:27;;;;;;;6.20;3.00;;;7.80;99.90;;;;;;4955990;28;20590;-67
2021/04/03 07:02:56;;;;;;;4.20;2.60;;;7.60;99.90;;;;;;4955011;28;21058;-67
2021/04/03 07:05:23;;;;;;;7.10;3.67;;;8.00;99.90;;;;;;4956018;28;20517;-67
2021/04/03 07:07:50;;;;;;;5.40;2.97;;;8.00;99.90;;;;;;4954630;28;20530;-67
2021/04/03 07:10:18;;;;;;;6.93;3.33;;;8.10;99.90;;;;;;4955613;28;20451;-68
2021/04/03 07:12:45;;;;;;;3.07;2.37;;;8.10;99.90;;;;;;4955331;28;20459;-69
2021/04/03 07:15:13;;;;;;;9.90;3.00;;;8.20;99.90;;;;;;4955387;28;21050;-66
2021/04/03 07:17:41;;;;;;;11.17;3.70;;;8.30;99.90;;;;;;4955314;28;20451;-67
2021/04/03 07:20:10;;;;;;;6.17;3.23;;;8.20;99.90;;;;;;4955059;28;20532;-66
2021/04/03 07:22:38;;;;;;;6.80;3.70;;;7.90;99.90;;;;;;4972054;28;20487;-66
2021/04/03 07:25:07;;;;;;;3.80;3.33;;;8.10;99.90;;;;;;4956101;28;20450;-67
2021/04/03 07:27:37;;;;;;;4.40;2.73;;;8.40;99.90;;;;;;4955296;28;20506;-68
2021/04/03 07:30:05;;;;;;;3.17;2.87;;;8.20;99.90;;;;;;4954700;28;20482;-67
2021/04/03 07:32:33;;;;;;;7.07;3.10;;;8.20;99.90;;;;;;4955473;28;20497;-67
2021/04/03 07:35:12;;;;;;;3.60;2.67;;;8.40;99.90;;;;;;4954348;28;21072;-67
2021/04/03 07:37:39;;;;;;;6.20;2.83;;;8.70;99.90;;;;;;4955071;28;20455;-67
2021/04/03 07:40:07;;;;;;;6.47;3.13;;;8.70;99.90;;;;;;4954602;28;20553;-67
2021/04/03 07:42:39;;;;;;;3.43;2.63;;;8.80;99.90;;;;;;4955492;28;20541;-67
2021/04/03 07:45:26;;;;;;;5.03;2.60;;;8.70;99.90;;;;;;4954191;28;20493;-67
2021/04/03 07:47:54;;;;;;;5.70;2.90;;;8.80;99.90;;;;;;4953625;28;20495;-67
2021/04/03 07:50:50;;;;;;;3.97;2.50;;;8.50;99.90;;;;;;4955348;28;20478;-67
2021/04/03 07:53:33;;;;;;;5.97;2.97;;;8.60;99.90;;;;;;4954740;28;20503;-67
2021/04/03 07:55:59;;;;;;;10.83;2.97;;;8.90;99.90;;;;;;4954066;28;20517;-67
2021/04/03 07:58:27;;;;;;;5.50;2.60;;;8.90;99.90;;;;;;4954494;28;20467;-67
2021/04/03 08:00:54;;;;;;;5.80;2.60;;;8.80;99.90;;;;;;4954259;28;20478;-67
2021/04/03 08:03:22;;;;;;;7.80;3.13;;;8.70;99.90;;;;;;4955055;28;20881;-67
2021/04/03 08:05:50;;;;;;;4.60;2.90;;;8.50;99.90;;;;;;4954167;28;20533;-67
2021/04/03 08:08:19;;;;;;;6.83;2.80;;;8.30;99.90;;;;;;4954184;28;20471;-67
2021/04/03 08:10:46;;;;;;;2.87;2.40;;;8.30;99.90;;;;;;4953970;28;20459;-69
2021/04/03 08:13:16;;;;;;;4.57;2.50;;;8.00;99.90;;;;;;4954420;28;20550;-66
2021/04/03 08:15:43;;;;;;;3.73;2.53;;;8.10;99.90;;;;;;4954856;28;20482;-69
2021/04/03 08:18:10;;;;;;;9.70;2.60;;;8.10;99.90;;;;;;4953911;28;20447;-66
2021/04/03 08:20:49;;;;;;;5.30;2.33;;;8.10;99.90;;;;;;4954868;28;20514;-67
2021/04/03 08:23:15;;;;;;;5.17;2.50;;;8.40;99.90;;;;;;4970161;28;20470;-67
2021/04/03 08:25:53;;;;;;;2.20;1.83;;;8.20;99.90;;;;;;4954521;28;20461;-67
2021/04/03 08:28:21;;;;;;;4.63;2.50;;;8.20;99.90;;;;;;4954176;28;20826;-67
2021/04/03 08:30:47;;;;;;;3.10;2.20;;;8.10;99.90;;;;;;4953548;28;20457;-69
2021/04/03 08:33:16;;;;;;;4.27;2.63;;;8.20;99.90;;;;;;4954507;28;20454;-67
2021/04/03 08:35:45;;;;;;;2.57;2.23;;;8.20;99.90;;;;;;4953888;28;20517;-67
2021/04/03 08:38:18;;;;;;;11.40;2.77;;;8.50;99.90;;;;;;4953730;28;20454;-67
2021/04/03 08:40:45;;;;;;;7.33;2.40;;;8.40;99.90;;;;;;4953564;28;20494;-70
2021/04/03 08:43:22;;;;;;;5.57;2.43;;;8.70;99.90;;;;;;4953989;28;20474;-67
2021/04/03 08:45:49;;;;;;;3.00;2.60;;;8.30;99.90;;;;;;4953403;28;20451;-67
2021/04/03 08:48:16;;;;;;;4.93;1.77;;;8.40;99.90;;;;;;4953996;28;20451;-67
2021/04/03 08:50:45;;;;;;;3.57;1.60;;;8.40;99.90;;;;;;4954435;28;20489;-67
2021/04/03 08:53:12;;;;;;;5.00;2.53;;;8.50;99.90;;;;;;4953825;28;20462;-67
2021/04/03 08:55:38;;;;;;;7.60;3.00;;;8.30;99.90;;;;;;4969589;28;20569;-67
2021/04/03 08:58:06;;;;;;;4.53;2.43;;;8.50;99.90;;;;;;4971749;28;20481;-67
2021/04/03 09:00:33;;;;;;;9.23;2.63;;;8.60;99.90;;;;;;4973096;28;20454;-67
2021/04/03 09:03:01;;;;;;;3.67;2.07;;;8.60;99.90;;;;;;4972281;28;20524;-67
2021/04/03 09:05:28;;;;;;;5.23;2.40;;;8.90;99.90;;;;;;4973060;28;20533;-67
2021/04/03 09:07:55;;;;;;;6.40;3.20;;;9.00;99.90;;;;;;4971694;28;20460;-68
2021/04/03 09:10:24;;;;;;;9.63;2.87;;;9.00;99.90;;;;;;4972766;28;20450;-67
2021/04/03 09:12:51;;;;;;;3.03;2.63;;;9.30;99.90;;;;;;4972059;28;20450;-67
2021/04/03 09:15:27;;;;;;;4.13;2.33;;;9.60;99.90;;;;;;4972796;28;20489;-67
2021/04/03 09:17:55;;;;;;;4.10;2.33;;;9.50;99.90;;;;;;4959400;28;20525;-67
2021/04/03 09:20:23;;;;;;;3.87;1.90;;;9.60;99.90;;;;;;4953498;28;20832;-67
2021/04/03 09:22:52;;;;;;;5.20;2.67;;;9.80;99.90;;;;;;4927706;29;20479;-68
2021/04/03 09:25:21;;;;;;;5.77;2.40;;;9.90;99.90;;;;;;4934428;29;20447;-67
2021/04/03 09:27:58;;;;;;;3.97;2.07;;;9.80;99.90;;;;;;4933263;29;20539;-69
2021/04/03 09:30:34;;;;;;;4.83;1.87;;;9.60;99.90;;;;;;4934446;29;20823;-67
2021/04/03 09:33:23;;;;;;;8.67;2.90;;;9.80;99.90;;;;;;4920914;29;20527;-67
2021/04/03 09:35:50;;;;;;;7.30;2.23;;;10.10;99.90;;;;;;4933340;29;20480;-68
2021/04/03 09:38:28;;;;;;;8.40;2.30;;;9.90;99.90;;;;;;4933926;29;20459;-66
2021/04/03 09:40:55;;;;;;;6.53;2.43;;;10.10;99.90;;;;;;4933234;29;21027;-67
2021/04/03 09:43:39;;;;;;;5.30;2.80;;;10.00;99.90;;;;;;4933858;29;20459;-67
2021/04/03 09:46:05;;;;;;;3.03;2.40;;;10.10;99.90;;;;;;4933355;29;20458;-67
2021/04/03 09:48:32;;;;;;;3.63;2.10;;;10.00;99.90;;;;;;4933708;29;20451;-67
2021/04/03 09:50:58;;;;;;;5.83;2.80;;;10.00;99.90;;;;;;4933057;29;20463;-67
2021/04/03 09:53:29;;;;;;;4.13;2.57;;;10.10;99.90;;;;;;4933932;29;20458;-67
2021/04/03 09:55:57;;;;;;;4.37;2.60;;;10.20;99.90;;;;;;4933027;29;20482;-67
2021/04/03 09:58:24;;;;;;;2.40;2.20;;;10.20;99.90;;;;;;4933570;29;20447;-67
2021/04/03 10:00:50;;;;;;;4.00;2.23;;;10.20;99.90;;;;;;4932787;29;20530;-67
2021/04/03 10:03:17;;;;;;;3.43;2.00;;;10.00;99.90;;;;;;4933486;29;20550;-67
2021/04/03 10:05:43;;;;;;;4.40;2.40;;;10.30;99.90;;;;;;4933617;29;20542;-67
2021/04/03 10:08:10;;;;;;;3.67;2.40;;;10.20;99.90;;;;;;4932633;29;20901;-67
2021/04/03 10:10:36;;;;;;;5.03;2.30;;;10.30;99.90;;;;;;4933287;29;20458;-67
2021/04/03 10:13:03;;;;;;;3.67;2.77;;;10.10;99.90;;;;;;4932920;29;20491;-66
2021/04/03 10:15:30;;;;;;;4.90;2.50;;;10.20;99.90;;;;;;4933532;29;20526;-66
2021/04/03 10:17:56;;;;;;;5.77;2.40;;;10.50;99.90;;;;;;4932515;29;20591;-67
2021/04/03 10:20:23;;;;;;;3.03;2.47;;;10.70;99.90;;;;;;4933117;28;20459;-67
2021/04/03 10:22:49;;;;;;;6.73;2.40;;;;;;;;;;4970672;28;20525;-69
2021/04/03 10:25:16;;;;;;;3.93;2.40;;;;;;;;;;4971978;28;20481;-66
2021/04/03 10:27:43;;;;;;;3.20;2.17;;;;;;;;;;4971448;28;20528;-67
2021/04/03 10:30:12;;;;;;;5.20;2.67;;;;;;;;;;4971290;28;20457;-67
2021/04/03 10:32:38;;;;;;;4.93;2.70;;;;;;;;;;4972010;28;20951;-67
2021/04/03 10:35:06;;;;;;;5.30;3.23;;;;;;;;;;4971084;28;20474;-67
2021/04/03 10:37:33;;;;;;;3.13;2.23;;;;;;;;;;4971538;28;20453;-67
2021/04/03 10:39:59;;;;;;;4.00;2.37;;;;;;;;;;4970991;28;20453;-67
2021/04/03 10:42:26;;;;;;;8.33;2.87;;;;;;;;;;4971375;28;20823;-67
2021/04/03 10:44:53;;;;;;;6.07;2.33;;;;;;;;;;4969120;28;20494;-67
2021/04/03 10:47:20;;;;;;;5.70;2.60;;;;;;;;;;4970977;28;20581;-67
2021/04/03 10:49:47;;;;;;;5.50;2.33;;;;;;;;;;4971240;28;20532;-69
2021/04/03 10:52:14;;;;;;;4.47;2.10;;;;;;;;;;4971984;28;20536;-67
2021/04/03 10:54:40;;;;;;;2.87;2.00;;;;;;;;;;4971475;28;20961;-67
2021/04/03 10:57:07;;;;;;;2.70;2.40;;;;;;;;;;4971045;28;20442;-67
2021/04/03 10:59:34;;;;;;;3.47;2.47;;;;;;;;;;4971364;28;20552;-67
2021/04/03 11:02:01;;;;;;;3.20;2.67;;;;;;;;;;4971074;28;20478;-67
2021/04/03 11:04:28;;;;;;;4.27;2.00;;;;;;;;;;4971400;28;20454;-67
2021/04/03 11:06:55;;;;;;;3.90;2.20;;;;;;;;;;4970959;28;20466;-67
2021/04/03 11:09:22;;;;;;;4.07;2.37;;;;;;;;;;4971517;28;20566;-66
2021/04/03 11:11:49;;;;;;;4.40;1.93;;;;;;;;;;4970825;28;20544;-68
2021/04/03 11:14:16;;;;;;;6.80;2.43;;;;;;;;;;4971836;28;20445;-67
2021/04/03 11:16:42;;;;;;;5.53;2.40;;;;;;;;;;4971474;28;20840;-67
2021/04/03 11:19:09;;;;;;;3.03;2.20;;;;;;;;;;4970577;28;20484;-67
2021/04/03 11:21:36;;;;;;;3.43;2.27;;;;;;;;;;4972132;28;20495;-66
2021/04/03 11:24:03;;;;;;;4.67;2.13;;;;;;;;;;4964673;28;20954;-67
2021/04/03 11:26:30;;;;;;;3.03;2.63;;;;;;;;;;4955501;28;20495;-67
2021/04/03 11:28:57;;;;;;;4.03;2.40;;;;;;;;;;4954482;28;20533;-67
2021/04/03 11:31:24;;;;;;;3.93;2.27;;;;;;;;;;4955370;28;21025;-67
2021/04/03 11:33:53;;;;;;;3.20;1.93;;;;;;;;;;4954734;28;20582;-70
2021/04/03 11:36:19;;;;;;;5.00;2.00;;;;;;;;;;4955381;28;20541;-67
2021/04/03 11:38:47;;;;;;;4.47;2.10;;;;;;;;;;4954742;28;20537;-67
2021/04/03 11:41:14;;;;;;;5.03;1.70;;;;;;;;;;4955116;28;20589;-67
2021/04/03 11:43:40;;;;;;;5.00;2.10;;;;;;;;;;4955042;28;20496;-67
2021/04/03 11:46:08;;;;;;;3.87;2.50;;;;;;;;;;4954091;28;21385;-67
2021/04/03 11:48:35;;;;;;;4.80;2.03;;;;;;;;;;4954747;28;20814;-67
2021/04/03 11:51:01;;;;;;;4.57;1.90;;;;;;;;;;4971532;28;20504;-67
2021/04/03 11:53:28;;;;;;;2.37;1.50;;;;;;;;;;4974392;28;20554;-68
2021/04/03 11:55:56;;;;;;;2.87;2.17;;;;;;;;;;4973166;28;20486;-68
2021/04/03 11:58:22;;;;;;;3.87;2.10;;;;;;;;;;4974074;28;20468;-67
2021/04/03 12:00:49;;;;;;;3.87;2.30;;;;;;;;;;4973610;28;20993;-70
2021/04/03 12:03:16;;;;;;;3.43;2.30;;;;;;;;;;4973766;28;20495;-67
2021/04/03 12:05:42;;;;;;;3.00;1.97;;;;;;;;;;4973815;28;20492;-67
2021/04/03 12:08:09;;;;;;;4.47;1.77;;;;;;;;;;4972980;28;20445;-67
2021/04/03 12:10:37;;;;;;;6.33;2.57;;;;;;;;;;4974059;28;20452;-67
2021/04/03 12:13:04;;;;;;;4.70;2.00;;;;;;;;;;4973212;28;20458;-67
2021/04/03 12:15:32;;;;;;;5.03;2.50;;;;;;;;;;4973778;28;20577;-67
2021/04/03 12:17:59;;;;;;;4.93;2.50;;;;;;;;;;4972503;28;20954;-67
2021/04/03 12:20:25;;;;;;;5.00;2.00;;;10.60;99.90;;;;;;4973564;28;20813;-68
2021/04/03 12:22:52;;;;;;;3.83;1.60;;;13.10;47.20;;;;;;4973110;28;20511;-70
2021/04/03 12:25:18;;;;;;;6.20;2.23;;;12.90;43.80;;;;;;4954237;28;20542;-67
2021/04/03 12:27:44;;;;;;;4.30;2.07;;;13.00;36.70;;;;;;4954614;28;20514;-65
2021/04/03 12:30:13;;;;;;;2.90;1.63;;;13.00;31.80;;;;;;4972884;28;20485;-67
2021/04/03 12:32:40;;;;;;;2.30;1.37;;;13.00;31.90;;;;;;4973033;28;20973;-67
2021/04/03 12:35:08;;;;;;;5.60;1.97;;;13.40;31.30;;;;;;4972476;28;20576;-67
2021/04/03 12:37:34;;;;;;;4.13;1.87;;;12.50;28.60;;;;;;4973095;28;20498;-67
2021/04/03 12:40:01;;;;;;;3.67;2.17;;;12.40;30.70;;;;;;4972449;28;20566;-67
2021/04/03 12:42:27;;;;;;;4.70;2.73;;;12.10;34.30;;;;;;4973335;28;20533;-67
2021/04/03 12:44:53;;;;;;;3.23;2.03;;;12.00;34.60;;;;;;4972567;28;20457;-68
2021/04/03 12:47:21;;;;;;;4.00;2.40;;;12.00;37.30;;;;;;4973114;28;20507;-67
2021/04/03 12:49:47;;;;;;;2.73;2.47;;;11.70;35.30;;;;;;4973144;28;20541;-67
2021/04/03 12:52:14;;;;;;;2.73;1.90;;;11.80;38.00;;;;;;4972373;28;20469;-67
2021/04/03 12:54:40;;;;;;;6.13;2.67;;;11.90;39.90;;;;;;4973313;28;20796;-67
2021/04/03 12:57:07;;;;;;;3.00;1.90;;;11.90;33.60;;;;;;4971931;28;20454;-66
2021/04/03 12:59:34;;;;;;;4.17;2.20;;;12.30;40.20;;;;;;4973108;28;20875;-67
2021/04/03 13:02:00;;;;;;;4.20;1.97;;;12.40;41.10;;;;;;4971953;28;20450;-67
2021/04/03 13:04:28;;;;;;;3.47;1.70;;;12.30;31.20;;;;;;4973198;28;20532;-67
2021/04/03 13:06:54;;;;;;;4.27;2.90;;;13.00;30.80;;;;;;4972024;28;20989;-67
2021/04/03 13:09:21;;;;;;;6.27;2.10;;;13.10;26.60;;;;;;4972524;28;20533;-67
2021/04/03 13:11:50;;;;;;;1.93;1.80;;;13.30;26.70;;;;;;4972944;28;20454;-67
2021/04/03 13:14:17;;;;;;;3.10;1.70;;;13.00;21.80;;;;;;4972433;28;20465;-67
2021/04/03 13:16:43;;;;;;;3.40;2.00;;;12.90;19.10;;;;;;4972530;28;21023;-67
2021/04/03 13:19:09;;;;;;;4.43;1.90;;;12.70;18.60;;;;;;4971391;28;20529;-67
2021/04/03 13:21:37;;;;;;;2.37;1.70;;;12.90;17.70;;;;;;4972473;28;20484;-67
2021/04/03 13:24:04;;;;;;;4.63;1.83;;;12.70;16.20;;;;;;4962585;28;20490;-67
2021/04/03 13:26:30;;;;;;;3.87;2.63;;;12.70;19.40;;;;;;4953029;28;20486;-67
2021/04/03 13:28:57;;;;;;;5.20;1.50;;;12.20;14.40;;;;;;4952820;28;20490;-67
2021/04/03 13:31:24;;;;;;;2.17;1.63;;;12.60;16.80;;;;;;4953635;28;20506;-66
2021/04/03 13:33:51;;;;;;;3.50;1.70;;;12.60;13.70;;;;;;4952538;28;20534;-71
2021/04/03 13:36:17;;;;;;;2.70;1.67;;;12.50;14.00;;;;;;4953343;28;20574;-66
2021/04/03 13:38:44;;;;;;;7.10;2.30;;;12.30;24.10;;;;;;4953685;28;20451;-66